• Join FlightAware (Why Join?)
  • Login
  • US Flag 
08:16AM EDT


 

Airport Tracker/Info


-or-


 

Live Flight TrackerFlight Track Log ✈ N102WY ✈ 10-Jul-2013 ✈ KRKS - KCYS

Flight Track Log - Related Links

Times and Time Zones

All times are in EDT time to prevent confusion due to time zone crossing. See the N102WY flight status page for this flight to view local times or setup timezone preferences in your user account.

Time Position Orientation Groundspeed Altitude Reporting Facility
EDT Latitude Longitude Course Direction KTS MPH feet Rate Location/Type
05:16PM 41.5417 -109.0822 119° Southeast 242 278 10,100  Level Denver Center
05:17PM 41.5050 -108.9922 119° Southeast 275 316 11,700 2,220 Climbing Salt Lake Center
05:18PM 41.4892 -108.8667 100° East 298 343 14,800 2,520 Climbing Salt Lake Center
05:19PM 41.4897 -108.7611 90° East 299 344 17,000 1,980 Climbing Salt Lake Center
05:20PM 41.4961 -108.6256 86° East 326 375 18,900 1,980 Climbing Salt Lake Center
05:21PM 41.4914 -108.5050 93° East 335 386 21,200 2,220 Climbing Salt Lake Center
05:22PM 41.4806 -108.3636 96° East 342 394 23,600 2,040 Climbing Salt Lake Center
05:23PM 41.4706 -108.2403 96° East 348 400 25,500 1,980 Climbing Salt Lake Center
05:24PM 41.4600 -108.0942 95° East 354 407 27,700 1,980 Climbing Salt Lake Center
05:25PM 41.4514 -107.9667 95° East 356 410 29,600 1,800 Climbing Denver Center
05:26PM 41.4425 -107.8422 95° East 353 406 31,500 1,560 Climbing Denver Center
05:27PM 41.4336 -107.7181 95° East 353 406 32,900 720 Climbing Denver Center
05:28PM 41.4217 -107.5597 96° East 382 440 33,000  Climbing Denver Center
05:29PM 41.4106 -107.3961 95° East 395 455 33,000  Level Denver Center
05:30PM 41.3997 -107.2553 96° East 398 458 33,000  Level Denver Center
05:31PM 41.3864 -107.0911 96° East 399 459 33,000  Level Denver Center
05:32PM 41.3719 -106.8994 96° East 408 470 33,000  Level Denver Center
05:33PM 41.3617 -106.7575 95° East 404 465 33,000  Level Denver Center
05:35PM 41.3497 -106.6136 96° East 408 470 33,000 -360 Level Denver Center
05:36PM 41.3367 -106.4572 96° East 408 470 32,300 -900 Descending Denver Center
05:37PM 41.3236 -106.3072 97° East 423 487 31,200 -1,500 Descending Denver Center
05:38PM 41.3092 -106.1408 97° East 407 468 29,200 -2,100 Descending Denver Center
05:39PM 41.2961 -105.9808 96° East 393 452 26,900 -2,340 Descending Denver Center
05:40PM 41.2814 -105.8139 97° East 361 415 24,000 -2,340 Descending Denver Center
05:41PM 41.2708 -105.6903 96° East 354 407 21,600 -2,580 Descending Denver Center
05:42PM 41.2578 -105.5511 97° East 342 394 18,700 -2,460 Descending Denver Center
05:43PM 41.2475 -105.4353 97° East 335 386 16,600 -2,220 Descending Denver Center
05:44PM 41.2369 -105.3317 98° East 318 366 14,200 -1,800 Descending Denver Center
05:45PM 41.2250 -105.2169 98° East 301 346 13,000 -1,200 Descending Denver Center
05:47PM 41.1961 -105.0466 96° East  Level Estimated
05:54PM 41.1556 -104.8105 99° East  Level Estimated
05:55PM 41.1556 -104.8105 99° East  Level Estimated
05:56PM 41.1556 -104.8105 99° East  Level Estimated
05:57PM 41.1556 -104.8105 99° East  Level Estimated
05:58PM 41.1556 -104.8105 99° East  Level Estimated
05:59PM 41.1556 -104.8105 99° East  Level Estimated